Time;durP1;ratioP1;P1;durP2;ratioP2;P2;SDS_P1;SDS_P2;PMS_P1;PMS_P2;Temp;Humidity;BMP_temperature;BMP_pressure;BME280_temperature;BME280_humidity;BME280_pressure;Samples;Min_cycle;Max_cycle;Signal;HPM_P1;HPM_P2
2023/04/30 00:00:45;;;;;;;10.27;4.70;;;8.10;99.90;;;;;;5044080;28;20040;-67
2023/04/30 00:03:11;;;;;;;9.93;5.28;;;8.00;99.90;;;;;;5035218;28;20056;-68
2023/04/30 00:05:37;;;;;;;10.45;5.05;;;7.90;99.90;;;;;;5049842;28;20063;-67
2023/04/30 00:08:03;;;;;;;9.88;5.20;;;7.80;99.90;;;;;;5046068;28;20037;-68
2023/04/30 00:10:29;;;;;;;9.75;4.85;;;7.70;99.90;;;;;;5042660;28;20100;-68
2023/04/30 00:12:55;;;;;;;10.25;5.45;;;7.60;99.90;;;;;;5044510;28;20499;-68
2023/04/30 00:15:21;;;;;;;10.07;5.60;;;7.50;99.90;;;;;;5045988;28;20045;-68
2023/04/30 00:17:47;;;;;;;11.63;6.35;;;7.50;99.90;;;;;;5045211;28;20388;-68
2023/04/30 00:20:12;;;;;;;9.00;5.57;;;7.40;99.90;;;;;;5045563;28;20041;-68
2023/04/30 00:22:38;;;;;;;14.95;5.93;;;7.40;99.90;;;;;;5045678;28;20113;-68
2023/04/30 00:25:04;;;;;;;10.23;5.88;;;7.30;99.90;;;;;;5046892;28;20036;-68
2023/04/30 00:27:30;;;;;;;12.98;6.00;;;7.30;99.90;;;;;;5041254;28;20051;-68
2023/04/30 00:29:56;;;;;;;14.30;6.13;;;7.30;99.90;;;;;;5045605;28;20055;-68
2023/04/30 00:32:22;;;;;;;14.93;6.28;;;7.30;99.90;;;;;;5043726;28;20052;-68
2023/04/30 00:34:48;;;;;;;15.02;5.97;;;7.30;99.90;;;;;;5045980;28;20040;-68
2023/04/30 00:37:13;;;;;;;14.70;6.15;;;7.20;99.90;;;;;;5044297;28;20442;-68
2023/04/30 00:39:39;;;;;;;11.52;6.15;;;7.20;99.90;;;;;;5044556;28;20055;-68
2023/04/30 00:42:04;;;;;;;10.82;5.80;;;7.10;99.90;;;;;;5046281;28;20420;-68
2023/04/30 00:44:30;;;;;;;14.48;6.07;;;7.10;99.90;;;;;;5045511;28;20102;-68
2023/04/30 00:46:55;;;;;;;10.60;5.90;;;7.00;99.90;;;;;;5042615;28;20533;-68
2023/04/30 00:49:21;;;;;;;12.38;5.97;;;7.00;99.90;;;;;;5042200;28;20041;-68
2023/04/30 00:51:47;;;;;;;14.98;6.63;;;7.00;99.90;;;;;;5044436;28;20060;-68
2023/04/30 00:54:14;;;;;;;10.88;6.05;;;7.00;99.90;;;;;;5044432;28;20094;-68
2023/04/30 00:56:39;;;;;;;14.73;6.28;;;7.00;99.90;;;;;;5042488;28;20757;-68
2023/04/30 00:59:05;;;;;;;11.30;6.00;;;6.90;99.90;;;;;;5042799;28;20048;-68
2023/04/30 01:01:31;;;;;;;11.63;5.90;;;6.90;99.90;;;;;;5044397;28;20041;-68
2023/04/30 01:03:57;;;;;;;9.85;5.40;;;6.90;99.90;;;;;;5044298;28;20075;-68
2023/04/30 01:06:24;;;;;;;9.75;5.38;;;6.80;99.90;;;;;;5044656;28;20041;-68
2023/04/30 01:08:50;;;;;;;14.25;6.35;;;6.70;99.90;;;;;;5043222;28;20119;-68
2023/04/30 01:11:32;;;;;;;14.50;6.47;;;6.60;99.90;;;;;;5041754;28;20120;-68
2023/04/30 01:14:00;;;;;;;11.50;5.70;;;6.60;99.90;;;;;;5035425;28;20110;-68
2023/04/30 01:16:29;;;;;;;12.85;5.90;;;6.50;99.90;;;;;;5041860;28;20086;-68
2023/04/30 01:19:28;;;;;;;13.25;5.93;;;6.50;99.90;;;;;;5043196;28;20586;-67
2023/04/30 01:21:57;;;;;;;13.00;5.63;;;6.50;99.90;;;;;;5043582;28;20041;-68
2023/04/30 01:25:05;;;;;;;11.32;5.85;;;6.40;99.90;;;;;;5042348;28;20091;-67
2023/04/30 01:28:04;;;;;;;14.50;6.18;;;6.40;99.90;;;;;;5041945;28;20040;-68
2023/04/30 01:30:34;;;;;;;14.10;6.07;;;6.40;99.90;;;;;;5057289;28;20059;-68
2023/04/30 01:32:59;;;;;;;13.18;6.13;;;6.40;99.90;;;;;;5038052;28;20033;-68
2023/04/30 01:36:05;;;;;;;12.98;6.55;;;6.30;99.90;;;;;;5037626;28;20047;-68
2023/04/30 01:38:44;;;;;;;11.93;5.53;;;6.30;99.90;;;;;;4995673;28;20176;-68
2023/04/30 01:41:30;;;;;;;12.77;5.47;;;6.20;99.90;;;;;;5060990;28;20041;-68
2023/04/30 01:44:34;;;;;;;12.52;6.40;;;6.10;99.90;;;;;;5043610;28;20044;-67
2023/04/30 01:47:18;;;;;;;8.75;3.90;;;6.10;99.90;;;;;;5013291;28;20075;-67
2023/04/30 01:50:07;;;;;;;8.63;4.35;;;5.90;99.90;;;;;;5043948;28;20041;-68
2023/04/30 01:53:01;;;;;;;7.63;4.53;;;5.90;99.90;;;;;;5038610;28;20136;-67
2023/04/30 01:55:41;;;;;;;5.88;3.70;;;5.90;99.90;;;;;;5034493;28;20049;-67
2023/04/30 01:58:11;;;;;;;4.75;2.95;;;5.80;99.90;;;;;;5038532;28;20052;-67
2023/04/30 02:00:36;;;;;;;5.55;3.30;;;5.80;99.90;;;;;;5034601;28;20127;-67
2023/04/30 02:03:02;;;;;;;8.55;3.97;;;5.70;99.90;;;;;;5036343;28;20090;-68
2023/04/30 02:05:28;;;;;;;10.00;4.43;;;5.70;99.90;;;;;;5037077;28;20377;-67
2023/04/30 02:07:53;;;;;;;7.43;4.72;;;5.60;99.90;;;;;;5036038;28;20044;-67
2023/04/30 02:10:24;;;;;;;7.25;3.33;;;5.60;99.90;;;;;;5036477;28;20040;-68
2023/04/30 02:12:50;;;;;;;5.93;2.42;;;5.50;99.90;;;;;;5033074;28;20474;-67
2023/04/30 02:15:16;;;;;;;4.18;2.92;;;5.50;99.90;;;;;;5036604;28;20044;-67
2023/04/30 02:17:41;;;;;;;5.18;3.28;;;5.40;99.90;;;;;;5034001;28;20550;-67
2023/04/30 02:20:08;;;;;;;6.35;3.47;;;5.40;99.90;;;;;;5038189;28;20079;-67
2023/04/30 02:22:34;;;;;;;4.82;3.88;;;5.40;99.90;;;;;;5033133;28;20492;-68
2023/04/30 02:24:59;;;;;;;6.75;4.07;;;5.30;99.90;;;;;;5036967;28;20450;-68
2023/04/30 02:27:29;;;;;;;5.57;3.22;;;5.30;99.90;;;;;;5034061;28;20037;-67
2023/04/30 02:29:55;;;;;;;2.88;2.20;;;5.20;99.90;;;;;;5036824;28;20247;-67
2023/04/30 02:32:20;;;;;;;3.03;2.00;;;5.20;99.90;;;;;;5035181;28;20455;-68
2023/04/30 02:34:46;;;;;;;3.75;2.80;;;5.10;99.90;;;;;;5035927;28;20124;-67
2023/04/30 02:37:12;;;;;;;5.57;3.00;;;5.10;99.90;;;;;;5051597;28;20037;-67
2023/04/30 02:39:37;;;;;;;4.78;2.55;;;5.10;99.90;;;;;;5036415;28;20479;-67
2023/04/30 02:42:03;;;;;;;3.47;2.53;;;5.10;99.90;;;;;;5035598;28;20071;-67
2023/04/30 02:44:29;;;;;;;5.60;2.83;;;5.10;99.90;;;;;;5039360;28;20405;-67
2023/04/30 02:46:54;;;;;;;3.70;2.47;;;5.00;99.90;;;;;;5034637;28;20041;-67
2023/04/30 02:49:20;;;;;;;5.93;2.20;;;5.00;99.90;;;;;;5034869;28;20036;-68
2023/04/30 02:51:45;;;;;;;4.45;2.20;;;5.00;99.90;;;;;;5034653;28;20056;-67
2023/04/30 02:54:11;;;;;;;58.08;4.35;;;5.10;99.90;;;;;;5036034;28;20045;-67
2023/04/30 02:56:38;;;;;;;12.85;2.95;;;5.10;99.90;;;;;;5038677;28;20431;-67
2023/04/30 02:59:03;;;;;;;2.00;1.50;;;5.10;99.90;;;;;;5038508;28;20484;-67
2023/04/30 03:01:29;;;;;;;3.17;2.03;;;5.00;99.90;;;;;;5039786;28;20043;-67
2023/04/30 03:03:55;;;;;;;3.80;2.40;;;5.00;99.90;;;;;;5037787;28;20048;-67
2023/04/30 03:06:20;;;;;;;5.50;2.88;;;5.10;99.90;;;;;;5036068;28;20407;-67
2023/04/30 03:08:47;;;;;;;3.88;2.38;;;5.00;99.90;;;;;;5036034;28;20052;-67
2023/04/30 03:11:12;;;;;;;223.95;7.80;;;5.00;99.90;;;;;;5036989;28;20037;-67
2023/04/30 03:13:38;;;;;;;188.75;6.65;;;4.70;99.90;;;;;;5037544;28;20506;-67
2023/04/30 03:16:04;;;;;;;70.28;3.65;;;4.40;99.90;;;;;;5036431;28;20580;-67
2023/04/30 03:18:30;;;;;;;3.38;1.42;;;4.20;99.90;;;;;;5036528;28;20152;-67
2023/04/30 03:20:56;;;;;;;0.82;0.73;;;4.10;99.90;;;;;;5035357;28;20810;-68
2023/04/30 03:23:22;;;;;;;1.15;1.00;;;4.00;99.90;;;;;;5034663;28;20079;-67
2023/04/30 03:25:48;;;;;;;1.60;0.95;;;3.90;99.90;;;;;;5039005;28;20032;-67
2023/04/30 03:28:14;;;;;;;2.55;1.35;;;4.00;99.90;;;;;;5037882;28;20055;-67
2023/04/30 03:30:40;;;;;;;4.88;2.35;;;4.00;99.90;;;;;;5040192;28;20045;-67
2023/04/30 03:33:06;;;;;;;3.75;2.50;;;4.00;99.90;;;;;;5039334;28;20049;-67
2023/04/30 03:35:32;;;;;;;4.18;2.00;;;4.00;99.90;;;;;;5038383;28;20120;-67
2023/04/30 03:37:59;;;;;;;1.70;1.40;;;4.00;99.90;;;;;;5038132;28;20506;-67
2023/04/30 03:40:24;;;;;;;3.60;2.03;;;4.00;99.90;;;;;;5039933;28;20484;-67
2023/04/30 03:42:50;;;;;;;3.53;2.35;;;4.00;99.90;;;;;;5037623;28;20052;-67
2023/04/30 03:45:15;;;;;;;2.42;2.10;;;4.10;99.90;;;;;;5039684;28;20033;-67
2023/04/30 03:47:42;;;;;;;25.65;2.70;;;4.10;99.90;;;;;;5040286;28;20033;-67
2023/04/30 03:50:08;;;;;;;3.05;1.42;;;4.20;99.90;;;;;;5038495;28;20040;-67
2023/04/30 03:52:35;;;;;;;45.55;2.75;;;4.10;99.90;;;;;;5040081;28;20702;-67
2023/04/30 03:55:01;;;;;;;76.85;3.92;;;4.10;99.90;;;;;;5038069;28;20036;-67
2023/04/30 03:57:27;;;;;;;4.97;2.08;;;4.00;99.90;;;;;;5038671;28;20090;-67
2023/04/30 03:59:52;;;;;;;4.00;2.10;;;4.00;99.90;;;;;;5029944;28;20043;-67
2023/04/30 04:02:18;;;;;;;5.38;3.28;;;4.10;99.90;;;;;;5036583;28;20041;-67
2023/04/30 04:04:44;;;;;;;9.45;4.45;;;4.00;99.90;;;;;;5037994;28;20043;-67
2023/04/30 04:07:10;;;;;;;4.40;2.85;;;4.10;99.90;;;;;;5041527;28;20041;-67
2023/04/30 04:09:35;;;;;;;6.22;2.90;;;4.10;99.90;;;;;;5039088;28;20055;-67
2023/04/30 04:12:01;;;;;;;3.22;2.53;;;4.10;99.90;;;;;;5040389;28;20041;-67
2023/04/30 04:14:27;;;;;;;6.22;3.58;;;4.20;99.90;;;;;;5043482;28;20039;-67
2023/04/30 04:16:52;;;;;;;8.25;3.90;;;4.20;99.90;;;;;;5035055;28;20049;-67
2023/04/30 04:19:18;;;;;;;6.07;3.30;;;4.20;99.90;;;;;;5037090;28;20094;-67
2023/04/30 04:21:43;;;;;;;5.68;3.60;;;4.20;99.90;;;;;;5037648;28;20344;-67
2023/04/30 04:24:09;;;;;;;5.88;4.35;;;4.30;99.90;;;;;;5036549;28;20063;-67
2023/04/30 04:26:36;;;;;;;5.07;3.33;;;4.30;99.90;;;;;;5036356;28;20107;-67
2023/04/30 04:29:07;;;;;;;4.63;2.45;;;4.20;99.90;;;;;;5036078;28;20037;-67
2023/04/30 04:31:33;;;;;;;2.83;2.30;;;4.20;99.90;;;;;;5038167;28;20052;-67
2023/04/30 04:33:59;;;;;;;3.22;2.85;;;4.20;99.90;;;;;;5041746;28;20032;-67
2023/04/30 04:36:27;;;;;;;3.55;3.20;;;4.20;99.90;;;;;;5037435;28;20037;-67
2023/04/30 04:38:53;;;;;;;8.20;4.90;;;4.20;99.90;;;;;;5036625;28;20045;-67
2023/04/30 04:41:19;;;;;;;8.15;5.00;;;4.20;99.90;;;;;;5037314;28;20404;-67
2023/04/30 04:43:45;;;;;;;9.00;4.25;;;4.20;99.90;;;;;;5040196;28;20562;-67
2023/04/30 04:46:11;;;;;;;32.15;3.70;;;4.20;99.90;;;;;;5037298;28;20611;-67
2023/04/30 04:48:36;;;;;;;10.07;3.13;;;4.10;99.90;;;;;;5035768;28;20462;-67
2023/04/30 04:51:02;;;;;;;8.93;2.95;;;4.00;99.90;;;;;;5036683;28;20044;-67
2023/04/30 04:53:27;;;;;;;7.07;4.05;;;3.90;99.90;;;;;;5036523;28;20075;-67
2023/04/30 04:55:53;;;;;;;9.77;5.13;;;3.90;99.90;;;;;;5041358;28;20091;-66
2023/04/30 04:58:19;;;;;;;7.80;5.25;;;3.90;99.90;;;;;;5036683;28;20048;-67
2023/04/30 05:00:45;;;;;;;14.05;7.13;;;3.90;99.90;;;;;;5037942;28;20044;-67
2023/04/30 05:03:11;;;;;;;10.75;5.65;;;3.90;99.90;;;;;;5040197;28;20037;-67
2023/04/30 05:05:36;;;;;;;10.55;6.35;;;4.00;99.90;;;;;;5039426;28;20450;-67
2023/04/30 05:08:02;;;;;;;10.48;6.13;;;3.90;99.90;;;;;;5038273;28;20403;-67
2023/04/30 05:10:27;;;;;;;13.80;6.63;;;4.00;99.90;;;;;;5037635;28;20044;-67
2023/04/30 05:12:53;;;;;;;12.27;6.72;;;4.00;99.90;;;;;;5049165;28;20079;-67
2023/04/30 05:15:18;;;;;;;12.55;6.93;;;3.90;99.90;;;;;;5039076;28;20043;-67
2023/04/30 05:17:44;;;;;;;16.42;7.95;;;4.00;99.90;;;;;;5038869;28;20045;-67
2023/04/30 05:20:11;;;;;;;13.30;7.07;;;4.10;99.90;;;;;;5037960;28;20052;-67
2023/04/30 05:22:37;;;;;;;11.70;7.18;;;4.10;99.90;;;;;;5038354;28;20075;-67
2023/04/30 05:25:03;;;;;;;15.07;7.03;;;4.20;99.90;;;;;;5037223;28;20104;-66
2023/04/30 05:27:28;;;;;;;14.55;7.40;;;4.30;99.90;;;;;;5041257;28;20076;-66
2023/04/30 05:29:54;;;;;;;16.02;7.80;;;4.30;99.90;;;;;;5041568;28;20480;-66
2023/04/30 05:32:21;;;;;;;15.85;7.82;;;4.30;99.90;;;;;;5038265;28;20084;-67
2023/04/30 05:34:46;;;;;;;14.90;7.95;;;4.40;99.90;;;;;;5037087;28;20598;-67
2023/04/30 05:37:13;;;;;;;17.42;7.70;;;4.40;99.90;;;;;;5034450;28;20184;-66
2023/04/30 05:39:38;;;;;;;16.95;8.00;;;4.50;99.90;;;;;;5040237;28;20072;-67
2023/04/30 05:42:04;;;;;;;19.00;7.50;;;4.60;99.90;;;;;;5038618;28;20193;-66
2023/04/30 05:44:30;;;;;;;16.95;8.55;;;4.70;99.90;;;;;;5038478;28;20055;-67
2023/04/30 05:46:56;;;;;;;14.50;7.85;;;4.80;99.90;;;;;;5038706;28;20084;-67
2023/04/30 05:49:21;;;;;;;14.63;7.97;;;4.90;99.90;;;;;;5038069;28;20056;-67
2023/04/30 05:51:47;;;;;;;15.98;8.23;;;5.00;99.90;;;;;;5039733;28;20032;-68
2023/04/30 05:54:12;;;;;;;15.30;8.93;;;5.20;99.90;;;;;;5038166;28;20051;-67
2023/04/30 05:56:38;;;;;;;17.23;9.52;;;5.30;99.90;;;;;;5039079;28;20037;-67
2023/04/30 05:59:03;;;;;;;15.57;9.90;;;5.40;99.90;;;;;;5036030;28;20029;-68
2023/04/30 06:01:29;;;;;;;17.77;10.32;;;5.50;99.90;;;;;;5033944;28;20032;-68
2023/04/30 06:03:54;;;;;;;19.65;10.57;;;5.70;99.90;;;;;;5042734;28;20037;-68
2023/04/30 06:06:20;;;;;;;22.08;11.07;;;5.80;99.90;;;;;;5051988;28;20388;-68
2023/04/30 06:08:45;;;;;;;22.95;12.05;;;6.00;99.90;;;;;;5037571;28;20037;-68
2023/04/30 06:11:12;;;;;;;18.25;12.35;;;6.10;99.90;;;;;;5054295;28;20049;-68
2023/04/30 06:13:38;;;;;;;19.30;11.13;;;6.20;99.90;;;;;;5041080;28;20040;-68
2023/04/30 06:16:05;;;;;;;19.10;10.77;;;6.30;99.90;;;;;;5042013;28;20077;-68
2023/04/30 06:18:30;;;;;;;19.55;11.55;;;6.50;99.90;;;;;;5037352;28;20060;-69
2023/04/30 06:20:55;;;;;;;20.30;11.77;;;6.60;99.90;;;;;;5038555;28;20078;-69
2023/04/30 06:23:21;;;;;;;20.98;10.95;;;6.80;99.90;;;;;;5042018;28;20415;-69
2023/04/30 06:25:47;;;;;;;17.20;10.18;;;7.00;99.90;;;;;;5036485;28;20132;-69
2023/04/30 06:28:12;;;;;;;19.88;10.05;;;7.10;99.90;;;;;;5038789;28;20071;-69
2023/04/30 06:30:38;;;;;;;17.85;9.55;;;7.30;99.90;;;;;;5036079;28;20041;-69
2023/04/30 06:33:03;;;;;;;18.42;8.95;;;7.40;99.90;;;;;;5038715;28;20044;-69
2023/04/30 06:35:29;;;;;;;16.75;8.05;;;7.50;99.90;;;;;;5038905;28;20574;-67
2023/04/30 06:37:54;;;;;;;13.25;7.78;;;7.70;99.90;;;;;;5035747;28;20049;-70
2023/04/30 06:40:20;;;;;;;18.67;7.60;;;7.80;99.90;;;;;;5042208;28;20033;-68
2023/04/30 06:42:46;;;;;;;17.77;7.18;;;8.00;99.90;;;;;;5042277;28;20040;-67
2023/04/30 06:45:13;;;;;;;12.52;6.68;;;8.10;99.90;;;;;;5039400;28;20072;-68
2023/04/30 06:47:41;;;;;;;16.88;6.70;;;8.30;99.90;;;;;;5040226;28;20063;-67
2023/04/30 06:50:07;;;;;;;14.57;6.63;;;8.40;99.90;;;;;;5042280;28;20519;-68
2023/04/30 06:52:33;;;;;;;15.20;5.88;;;8.60;99.90;;;;;;5041433;28;20056;-68
2023/04/30 06:54:59;;;;;;;14.00;5.82;;;8.70;99.90;;;;;;5043411;28;20044;-69
2023/04/30 06:57:26;;;;;;;14.13;5.95;;;8.80;99.90;;;;;;5038829;28;20159;-69
2023/04/30 06:59:52;;;;;;;12.23;5.38;;;9.00;99.90;;;;;;5046316;28;20036;-68
2023/04/30 07:02:17;;;;;;;12.73;5.20;;;9.00;99.90;;;;;;5045751;28;20063;-69
2023/04/30 07:04:43;;;;;;;10.57;4.90;;;9.10;99.90;;;;;;5050219;28;20037;-70
2023/04/30 07:07:09;;;;;;;11.90;4.65;;;9.20;99.90;;;;;;5043956;28;20136;-69
2023/04/30 07:09:35;;;;;;;8.85;4.10;;;9.40;99.90;;;;;;5043073;28;20048;-70
2023/04/30 07:12:01;;;;;;;9.45;4.20;;;9.40;99.90;;;;;;5044709;28;20160;-71
2023/04/30 07:14:27;;;;;;;12.20;4.78;;;9.50;99.90;;;;;;5040545;28;20041;-69
2023/04/30 07:16:52;;;;;;;14.93;4.45;;;9.60;99.90;;;;;;5043865;28;20074;-68
2023/04/30 07:19:18;;;;;;;9.18;4.50;;;9.70;99.90;;;;;;5041861;28;20043;-68
2023/04/30 07:21:44;;;;;;;12.88;4.43;;;9.80;99.90;;;;;;5040043;28;20041;-69
2023/04/30 07:24:10;;;;;;;10.88;4.53;;;9.90;99.90;;;;;;5042325;28;20048;-70
2023/04/30 07:26:36;;;;;;;11.52;4.88;;;10.00;99.90;;;;;;5040267;28;20079;-71
2023/04/30 07:29:03;;;;;;;11.15;4.55;;;10.00;99.90;;;;;;5038789;28;20453;-70
2023/04/30 07:31:29;;;;;;;11.43;4.40;;;10.10;99.90;;;;;;5044028;28;20029;-69
2023/04/30 07:33:55;;;;;;;15.10;5.07;;;10.10;99.90;;;;;;5043401;28;20078;-69
2023/04/30 07:36:21;;;;;;;11.07;4.28;;;10.10;99.90;;;;;;5039068;28;20384;-69
2023/04/30 07:38:46;;;;;;;8.73;4.43;;;10.20;99.90;;;;;;5038939;28;20084;-69
2023/04/30 07:41:12;;;;;;;9.57;4.30;;;10.30;99.90;;;;;;5059287;28;20128;-70
2023/04/30 07:43:38;;;;;;;10.57;4.47;;;10.40;99.90;;;;;;5041705;28;20179;-69
2023/04/30 07:46:03;;;;;;;15.02;4.63;;;10.40;99.90;;;;;;5039885;28;20036;-68
2023/04/30 07:48:29;;;;;;;12.40;4.30;;;10.50;99.90;;;;;;5057321;28;20056;-69
2023/04/30 07:50:55;;;;;;;11.35;4.55;;;10.50;99.90;;;;;;5043785;28;20088;-70
2023/04/30 07:53:22;;;;;;;10.23;3.80;;;10.60;99.90;;;;;;5039758;28;20041;-69
2023/04/30 07:55:48;;;;;;;10.55;4.30;;;10.70;99.90;;;;;;5042176;28;20479;-68
2023/04/30 07:58:13;;;;;;;9.90;3.58;;;10.80;99.90;;;;;;5040677;28;20040;-69
2023/04/30 08:00:39;;;;;;;12.40;3.88;;;10.80;99.90;;;;;;5041636;28;20041;-69
2023/04/30 08:03:05;;;;;;;10.50;4.00;;;10.90;99.90;;;;;;5039357;28;20072;-68
2023/04/30 08:05:30;;;;;;;10.00;4.00;;;11.10;99.90;;;;;;5041137;28;20037;-68
2023/04/30 08:07:56;;;;;;;16.10;4.85;;;11.10;99.90;;;;;;5036028;28;20442;-68
2023/04/30 08:10:22;;;;;;;10.70;3.60;;;11.20;99.90;;;;;;5038575;28;20049;-67
2023/04/30 08:12:47;;;;;;;13.32;3.63;;;11.30;99.90;;;;;;5041107;28;20036;-68
2023/04/30 08:15:13;;;;;;;8.93;4.03;;;11.40;99.90;;;;;;5044847;28;20049;-68
2023/04/30 08:17:38;;;;;;;11.23;3.70;;;11.40;99.90;;;;;;5043227;28;20056;-68
2023/04/30 08:20:05;;;;;;;9.38;3.70;;;11.40;99.90;;;;;;5043531;28;20060;-68
2023/04/30 08:22:30;;;;;;;12.80;4.60;;;11.50;99.90;;;;;;5036935;28;20049;-68
2023/04/30 08:24:56;;;;;;;11.57;4.15;;;11.40;99.90;;;;;;5038404;28;20036;-68
2023/04/30 08:27:22;;;;;;;12.13;4.45;;;11.30;99.90;;;;;;5038063;28;20577;-67
2023/04/30 08:29:48;;;;;;;9.85;4.30;;;11.30;99.90;;;;;;5038245;28;20048;-70
2023/04/30 08:32:13;;;;;;;9.48;4.00;;;11.30;99.90;;;;;;5037892;28;20503;-68
2023/04/30 08:34:39;;;;;;;11.43;3.97;;;11.50;99.90;;;;;;5040445;28;20056;-67
2023/04/30 08:37:06;;;;;;;8.85;3.92;;;11.70;99.90;;;;;;5039511;28;20036;-68
2023/04/30 08:39:32;;;;;;;8.57;4.15;;;11.80;99.90;;;;;;5040379;28;20040;-68
2023/04/30 08:42:01;;;;;;;13.45;4.50;;;12.00;99.90;;;;;;5038056;28;20060;-68
2023/04/30 08:44:27;;;;;;;9.68;4.30;;;12.10;99.90;;;;;;5041430;28;20032;-68
2023/04/30 08:46:54;;;;;;;11.73;4.15;;;12.20;99.90;;;;;;5040446;28;20044;-67
2023/04/30 08:49:24;;;;;;;11.27;4.20;;;12.20;99.90;;;;;;5038598;28;20045;-68
2023/04/30 08:51:50;;;;;;;11.05;4.50;;;12.20;99.90;;;;;;5042547;28;20487;-68
2023/04/30 08:54:17;;;;;;;10.65;4.43;;;12.30;99.90;;;;;;5037033;28;20086;-69
2023/04/30 08:56:44;;;;;;;9.32;4.20;;;12.30;99.90;;;;;;5038776;28;20053;-68
2023/04/30 08:59:11;;;;;;;9.48;4.07;;;12.40;99.90;;;;;;5029481;28;20049;-70
2023/04/30 09:01:37;;;;;;;9.93;4.00;;;12.50;99.90;;;;;;5044117;28;20045;-69
2023/04/30 09:04:03;;;;;;;9.70;4.65;;;12.60;99.90;;;;;;5039771;28;20055;-68
2023/04/30 09:06:30;;;;;;;8.43;4.65;;;12.50;99.90;;;;;;5044959;28;20116;-68
2023/04/30 09:08:55;;;;;;;10.82;4.50;;;12.60;99.90;;;;;;5046922;28;20049;-68
2023/04/30 09:11:29;;;;;;;7.45;4.20;;;12.60;99.90;;;;;;5043649;28;20526;-71
2023/04/30 09:13:57;;;;;;;14.23;5.18;;;12.80;99.90;;;;;;5041859;28;20045;-68
2023/04/30 09:16:25;;;;;;;11.52;4.88;;;12.80;99.90;;;;;;5045154;28;20049;-69
2023/04/30 09:18:50;;;;;;;10.00;4.93;;;12.80;99.90;;;;;;5042387;28;20090;-69
2023/04/30 09:21:16;;;;;;;12.00;4.07;;;12.90;99.90;;;;;;5054089;28;21071;-70
2023/04/30 09:24:00;;;;;;;12.52;4.15;;;12.90;99.90;;;;;;5059348;28;20147;-70
2023/04/30 09:26:30;;;;;;;9.00;4.18;;;13.00;99.90;;;;;;5056975;28;20044;-68
2023/04/30 09:28:57;;;;;;;10.70;4.63;;;13.10;99.90;;;;;;5040195;28;20049;-68
2023/04/30 09:31:23;;;;;;;10.88;4.50;;;13.20;99.90;;;;;;5042957;28;20071;-69
2023/04/30 09:33:50;;;;;;;7.40;4.07;;;13.30;99.90;;;;;;5042554;28;20462;-69
2023/04/30 09:36:15;;;;;;;10.80;4.57;;;13.30;99.90;;;;;;5044864;28;20488;-69
2023/04/30 09:38:41;;;;;;;9.90;4.55;;;13.30;99.90;;;;;;5040321;28;20036;-68
2023/04/30 09:41:23;;;;;;;7.60;4.20;;;13.20;99.90;;;;;;5044854;28;20041;-67
2023/04/30 09:43:50;;;;;;;10.23;4.25;;;13.00;99.90;;;;;;5040422;28;20075;-67
2023/04/30 09:46:18;;;;;;;11.93;4.90;;;13.10;99.90;;;;;;5042809;28;20128;-70
2023/04/30 09:48:44;;;;;;;10.38;3.67;;;13.10;99.90;;;;;;5040613;28;20041;-69
2023/04/30 09:51:10;;;;;;;11.20;4.80;;;13.20;99.90;;;;;;5044427;28;20467;-70
2023/04/30 09:53:43;;;;;;;11.27;4.65;;;13.40;99.90;;;;;;5041227;28;20049;-68
2023/04/30 09:56:11;;;;;;;11.48;4.45;;;13.50;99.90;;;;;;5043966;28;20045;-69
2023/04/30 09:58:37;;;;;;;10.52;4.47;;;13.50;99.90;;;;;;5046857;28;20059;-70
2023/04/30 10:01:10;;;;;;;10.52;4.90;;;13.60;99.90;;;;;;5046983;28;20044;-68
2023/04/30 10:03:38;;;;;;;12.93;5.25;;;13.70;99.90;;;;;;5040663;28;20038;-66
2023/04/30 10:06:07;;;;;;;10.70;4.75;;;13.60;99.90;;;;;;5030832;28;20033;-70
2023/04/30 10:08:42;;;;;;;9.63;3.97;;;13.70;99.90;;;;;;5053945;28;20042;-70
2023/04/30 10:11:15;;;;;;;11.85;4.68;;;13.70;99.90;;;;;;5041049;28;20259;-68
2023/04/30 10:13:56;;;;;;;;;;;13.70;99.90;;;;;;5039164;28;20051;-70
2023/04/30 10:16:47;;;;;;;10.57;4.53;;;13.80;99.90;;;;;;5041986;28;19923;-70
2023/04/30 10:19:22;;;;;;;8.20;4.22;;;13.80;99.90;;;;;;5024924;28;20048;-69
2023/04/30 10:21:49;;;;;;;9.68;4.60;;;13.80;99.90;;;;;;5038707;28;20083;-70
2023/04/30 10:24:18;;;;;;;8.70;4.90;;;13.90;99.90;;;;;;5040466;28;20091;-69
2023/04/30 10:26:44;;;;;;;10.05;4.40;;;14.00;99.90;;;;;;5043052;28;20135;-68
2023/04/30 10:29:12;;;;;;;7.18;4.15;;;14.10;99.90;;;;;;5041697;28;20047;-68
2023/04/30 10:31:38;;;;;;;11.23;4.68;;;14.20;99.90;;;;;;5043263;28;20404;-67
2023/04/30 10:34:04;;;;;;;11.65;4.63;;;14.10;99.90;;;;;;5041326;28;20098;-70
2023/04/30 10:36:49;;;;;;;10.50;4.25;;;14.20;99.90;;;;;;5041690;28;20499;-70
2023/04/30 10:39:20;;;;;;;9.38;4.57;;;14.20;99.90;;;;;;5038299;28;20491;-70
2023/04/30 10:41:47;;;;;;;9.20;3.70;;;14.30;99.90;;;;;;5060987;28;20492;-71
2023/04/30 10:44:13;;;;;;;10.30;4.40;;;14.40;99.90;;;;;;5043730;28;20492;-70
2023/04/30 10:46:39;;;;;;;13.60;4.40;;;14.40;99.90;;;;;;5044014;28;20037;-69
2023/04/30 10:49:05;;;;;;;8.70;4.60;;;14.40;99.90;;;;;;5054139;28;20098;-68
2023/04/30 10:51:47;;;;;;;7.30;4.10;;;14.50;99.90;;;;;;5050402;28;20044;-68
2023/04/30 10:54:16;;;;;;;8.32;3.80;;;14.60;99.90;;;;;;5063663;28;20037;-70
2023/04/30 10:56:43;;;;;;;10.82;4.18;;;14.60;99.90;;;;;;5040238;28;20068;-70
2023/04/30 10:59:09;;;;;;;11.10;4.20;;;14.60;99.90;;;;;;5055162;28;20051;-69
2023/04/30 11:01:56;;;;;;;11.07;4.57;;;14.50;99.90;;;;;;5051493;28;20045;-67
2023/04/30 11:04:23;;;;;;;11.05;4.10;;;14.40;99.90;;;;;;5045692;28;20514;-69
2023/04/30 11:06:55;;;;;;;10.40;4.53;;;14.60;99.90;;;;;;5044366;28;20396;-70
2023/04/30 11:09:38;;;;;;;12.65;4.90;;;14.70;99.90;;;;;;5042859;28;20052;-68
2023/04/30 11:12:08;;;;;;;;;;;14.90;99.90;;;;;;5056589;28;20069;-69
2023/04/30 11:14:34;;;;;;;7.07;4.30;;;15.00;99.90;;;;;;5055291;28;20280;-70
2023/04/30 11:17:02;;;;;;;6.50;3.78;;;15.10;99.90;;;;;;5055365;28;20047;-70
2023/04/30 11:19:28;;;;;;;8.75;3.97;;;15.20;99.90;;;;;;5051775;28;20254;-68
2023/04/30 11:22:03;;;;;;;9.07;4.10;;;15.20;99.90;;;;;;5046193;28;20099;-68
2023/04/30 11:25:04;;;;;;;8.05;4.10;;;15.30;99.90;;;;;;5054208;28;20472;-69
2023/04/30 11:27:34;;;;;;;8.20;4.15;;;15.30;99.90;;;;;;5052945;28;20103;-67
2023/04/30 11:30:01;;;;;;;8.63;4.28;;;15.40;99.90;;;;;;5035114;28;20084;-71
2023/04/30 11:32:35;;;;;;;6.97;4.00;;;15.40;99.90;;;;;;5045705;28;20048;-68
2023/04/30 11:35:05;;;;;;;8.43;4.28;;;15.50;99.90;;;;;;5040609;28;20045;-68
2023/04/30 11:37:34;;;;;;;7.40;4.97;;;15.60;99.90;;;;;;5044337;28;20051;-67
2023/04/30 11:40:02;;;;;;;9.00;4.45;;;15.70;99.90;;;;;;5056479;28;20052;-70
2023/04/30 11:42:33;;;;;;;7.78;4.50;;;15.70;99.90;;;;;;5042315;28;20444;-71
2023/04/30 11:45:12;;;;;;;6.78;3.75;;;15.60;99.90;;;;;;5043784;28;20065;-70
2023/04/30 11:47:42;;;;;;;7.13;4.57;;;15.80;99.90;;;;;;5046441;28;20048;-71
2023/04/30 11:50:12;;;;;;;11.50;4.93;;;15.90;99.90;;;;;;5044687;28;20052;-70
2023/04/30 11:52:39;;;;;;;7.10;4.68;;;15.90;99.90;;;;;;5044213;28;20095;-70
2023/04/30 11:55:14;;;;;;;10.23;4.50;;;16.00;99.90;;;;;;5035879;28;20037;-70
2023/04/30 11:57:45;;;;;;;9.70;5.28;;;16.20;99.90;;;;;;5058911;28;20131;-70
2023/04/30 12:00:16;;;;;;;6.85;4.28;;;16.40;99.90;;;;;;5046400;28;20068;-70
2023/04/30 12:02:44;;;;;;;7.43;3.85;;;16.50;99.90;;;;;;5043539;28;20037;-70
2023/04/30 12:05:28;;;;;;;8.32;4.13;;;16.60;99.90;;;;;;5046053;28;20510;-71
2023/04/30 12:08:03;;;;;;;7.70;3.90;;;16.80;99.90;;;;;;5041395;28;20049;-71
2023/04/30 12:10:30;;;;;;;9.50;3.92;;;16.90;99.90;;;;;;5041963;28;20480;-70
2023/04/30 12:12:56;;;;;;;9.00;4.22;;;17.00;99.90;;;;;;5045082;28;20045;-70
2023/04/30 12:15:25;;;;;;;7.75;4.15;;;16.80;99.90;;;;;;5046801;28;20037;-71
2023/04/30 12:17:55;;;;;;;7.63;4.20;;;16.90;99.90;;;;;;5044716;28;20141;-70
2023/04/30 12:20:21;;;;;;;10.40;4.05;;;16.80;99.90;;;;;;5040672;28;22157;-70
2023/04/30 12:22:48;;;;;;;8.82;3.72;;;16.80;99.90;;;;;;5024827;28;20388;-70
2023/04/30 12:25:17;;;;;;;6.45;3.70;;;16.80;99.90;;;;;;5046438;28;20060;-70
2023/04/30 12:27:48;;;;;;;7.38;3.55;;;16.80;99.90;;;;;;5042317;28;20045;-71
2023/04/30 12:30:14;;;;;;;9.45;4.15;;;16.90;99.90;;;;;;5039165;28;20051;-70
2023/04/30 12:32:42;;;;;;;7.45;3.72;;;17.00;99.90;;;;;;5044701;28;20124;-69
2023/04/30 12:35:18;;;;;;;7.22;3.63;;;16.80;99.90;;;;;;5046750;28;20067;-70
2023/04/30 12:37:45;;;;;;;6.35;3.53;;;16.60;99.90;;;;;;5043965;28;20488;-71
2023/04/30 12:40:13;;;;;;;8.30;4.10;;;16.60;99.90;;;;;;5043970;28;20041;-71
2023/04/30 12:42:40;;;;;;;12.05;3.53;;;16.50;99.90;;;;;;5040798;28;20178;-71
2023/04/30 12:45:06;;;;;;;9.90;3.60;;;16.50;99.90;;;;;;5044748;28;20086;-70
2023/04/30 12:47:37;;;;;;;10.38;3.58;;;16.40;99.90;;;;;;5041595;28;20040;-71
2023/04/30 12:50:03;;;;;;;6.80;3.60;;;16.50;99.90;;;;;;5057499;28;20509;-71
2023/04/30 12:52:32;;;;;;;6.85;3.30;;;16.40;99.90;;;;;;5040979;28;20067;-71